Time;durP1;ratioP1;P1;durP2;ratioP2;P2;SDS_P1;SDS_P2;PMS_P1;PMS_P2;Temp;Humidity;BMP_temperature;BMP_pressure;BME280_temperature;BME280_humidity;BME280_pressure;Samples;Min_cycle;Max_cycle;Signal;HPM_P1;HPM_P2
2021/01/09 00:00:31;;;;;;;46.72;19.92;;;;;;;;;;5014660;28;20025;-68
2021/01/09 00:02:56;;;;;;;45.20;19.25;;;;;;;;;;5021822;28;20026;-67
2021/01/09 00:05:22;;;;;;;45.53;20.65;;;;;;;;;;5021056;28;20109;-66
2021/01/09 00:07:47;;;;;;;38.90;19.92;;;;;;;;;;5012311;28;20022;-67
2021/01/09 00:10:12;;;;;;;46.58;22.02;;;;;;;;;;5018050;28;20041;-67
2021/01/09 00:12:38;;;;;;;43.83;21.92;;;;;;;;;;5071956;22;20044;-64
2021/01/09 00:15:04;;;;;;;40.00;20.73;;;;;;;;;;5050987;28;20024;-64
2021/01/09 00:17:29;;;;;;;41.22;20.85;;;;;;;;;;5056068;28;20048;-64
2021/01/09 00:19:55;;;;;;;42.35;21.02;;;;;;;;;;5050255;28;20041;-64
2021/01/09 00:22:20;;;;;;;43.90;20.67;;;;;;;;;;5052348;28;20028;-64
2021/01/09 00:24:45;;;;;;;43.78;21.05;;;;;;;;;;5053383;28;20025;-64
2021/01/09 00:27:11;;;;;;;54.03;23.30;;;;;;;;;;5051452;28;20031;-64
2021/01/09 00:29:40;;;;;;;45.30;21.48;;;;;;;;;;5059528;28;20020;-64
2021/01/09 00:32:06;;;;;;;42.07;21.27;;;;;;;;;;5050299;28;20021;-64
2021/01/09 00:34:31;;;;;;;43.95;20.88;;;;;;;;;;5051207;28;20118;-64
2021/01/09 00:36:56;;;;;;;48.33;21.90;;;;;;;;;;5052115;28;20028;-64
2021/01/09 00:39:21;;;;;;;52.70;22.38;;;;;;;;;;5051196;28;20457;-64
2021/01/09 00:41:47;;;;;;;50.60;22.92;;;;;;;;;;5050261;28;20036;-64
2021/01/09 00:44:12;;;;;;;46.45;21.48;;;;;;;;;;5049447;28;20028;-64
2021/01/09 00:46:37;;;;;;;42.38;19.85;;;;;;;;;;5052178;28;20021;-64
2021/01/09 00:49:03;;;;;;;41.07;19.17;;;;;;;;;;5050395;28;20029;-65
2021/01/09 00:51:28;;;;;;;40.45;18.77;;;;;;;;;;5053711;28;20267;-64
2021/01/09 00:53:53;;;;;;;40.90;20.20;;;;;;;;;;5053738;28;20020;-64
2021/01/09 00:56:18;;;;;;;41.90;18.73;;;;;;;;;;5049953;28;20029;-64
2021/01/09 00:58:43;;;;;;;42.58;18.98;;;;;;;;;;5052868;28;20648;-64
2021/01/09 01:01:09;;;;;;;43.25;19.85;;;;;;;;;;5051099;28;20009;-64
2021/01/09 01:03:34;;;;;;;41.15;19.02;;;;;;;;;;5058008;28;20052;-64
2021/01/09 01:05:59;;;;;;;44.40;19.95;;;;;;;;;;5055221;28;20027;-64
2021/01/09 01:08:25;;;;;;;38.97;20.67;;;;;;;;;;5052092;28;20060;-64
2021/01/09 01:10:50;;;;;;;48.03;21.30;;;;;;;;;;5054244;28;20047;-64
2021/01/09 01:13:15;;;;;;;44.72;20.45;;;;;;;;;;5051100;28;20031;-64
2021/01/09 01:15:41;;;;;;;40.63;20.13;;;;;;;;;;5050309;28;20009;-64
2021/01/09 01:18:06;;;;;;;36.30;18.67;;;;;;;;;;5052849;28;20033;-64
2021/01/09 01:20:31;;;;;;;37.22;19.20;;;;;;;;;;5051417;28;20013;-64
2021/01/09 01:22:56;;;;;;;36.13;18.30;;;;;;;;;;5050011;28;20094;-64
2021/01/09 01:25:22;;;;;;;37.10;19.35;;;;;;;;;;5050389;28;20448;-64
2021/01/09 01:27:47;;;;;;;36.83;17.40;;;;;;;;;;5053381;28;20021;-65
2021/01/09 01:30:12;;;;;;;41.05;17.30;;;;;;;;;;5048902;28;20108;-64
2021/01/09 01:32:37;;;;;;;35.05;17.10;;;;;;;;;;5046829;28;20035;-65
2021/01/09 01:35:03;;;;;;;38.22;16.52;;;;;;;;;;5049916;28;20029;-65
2021/01/09 01:37:28;;;;;;;41.38;18.48;;;;;;;;;;5049631;28;20044;-65
2021/01/09 01:39:53;;;;;;;38.17;17.00;;;;;;;;;;5054972;28;20028;-64
2021/01/09 01:42:19;;;;;;;36.90;17.15;;;;;;;;;;5049054;28;20037;-64
2021/01/09 01:44:44;;;;;;;36.22;16.98;;;;;;;;;;5050007;28;20059;-65
2021/01/09 01:47:14;;;;;;;37.35;16.67;;;;;;;;;;5050862;28;20019;-65
2021/01/09 01:49:39;;;;;;;34.35;17.40;;;;;;;;;;5052923;28;20028;-64
2021/01/09 01:52:05;;;;;;;36.50;18.17;;;;;;;;;;5051432;28;20025;-65
2021/01/09 01:54:31;;;;;;;38.22;19.75;;;;;;;;;;5050850;28;20025;-64
2021/01/09 01:56:56;;;;;;;40.03;19.00;;;;;;;;;;5048203;28;20028;-64
2021/01/09 01:59:22;;;;;;;39.58;16.85;;;;;;;;;;5047994;28;20032;-65
2021/01/09 02:01:48;;;;;;;38.88;18.17;;;;;;;;;;5048859;28;20064;-64
2021/01/09 02:04:14;;;;;;;38.97;17.88;;;;;;;;;;5051899;28;20024;-65
2021/01/09 02:06:39;;;;;;;49.88;19.35;;;;;;;;;;5049767;28;20499;-64
2021/01/09 02:09:07;;;;;;;35.33;16.33;;;;;;;;;;5050372;28;20025;-65
2021/01/09 02:11:43;;;;;;;36.53;16.85;;;;;;;;;;5048698;28;20473;-64
2021/01/09 02:14:13;;;;;;;35.05;17.20;;;;;;;;;;5050215;28;20027;-64
2021/01/09 02:16:39;;;;;;;34.95;16.17;;;;;;;;;;5051929;28;20025;-65
2021/01/09 02:19:07;;;;;;;34.03;15.88;;;;;;;;;;5050154;28;20417;-65
2021/01/09 02:21:42;;;;;;;35.50;16.85;;;;;;;;;;5050177;28;20101;-65
2021/01/09 02:24:10;;;;;;;38.25;16.75;;;;;;;;;;5046150;28;20488;-65
2021/01/09 02:26:35;;;;;;;37.63;17.42;;;;;;;;;;5052475;28;20041;-64
2021/01/09 02:29:00;;;;;;;36.85;17.42;;;;;;;;;;5049941;28;20017;-65
2021/01/09 02:31:26;;;;;;;34.00;15.65;;;;;;;;;;5049059;28;20370;-64
2021/01/09 02:33:51;;;;;;;37.15;16.58;;;;;;;;;;5053120;28;20095;-65
2021/01/09 02:36:16;;;;;;;37.03;18.10;;;;;;;;;;5049816;28;20056;-64
2021/01/09 02:38:43;;;;;;;39.13;17.13;;;;;;;;;;5049406;28;20040;-64
2021/01/09 02:41:08;;;;;;;34.90;15.57;;;;;;;;;;5051953;28;20028;-64
2021/01/09 02:43:33;;;;;;;41.17;17.38;;;;;;;;;;5055613;28;20029;-64
2021/01/09 02:45:59;;;;;;;39.85;16.50;;;;;;;;;;5053177;28;20018;-64
2021/01/09 02:48:24;;;;;;;36.90;16.33;;;;;;;;;;5055723;28;20413;-64
2021/01/09 02:50:49;;;;;;;36.67;16.42;;;;;;;;;;5053984;28;20036;-64
2021/01/09 02:53:14;;;;;;;36.97;17.10;;;;;;;;;;5052014;28;20040;-64
2021/01/09 02:55:39;;;;;;;41.58;16.83;;;;;;;;;;5054057;28;20020;-65
2021/01/09 02:58:05;;;;;;;35.97;16.77;;;;;;;;;;5055592;28;20029;-64
2021/01/09 03:00:30;;;;;;;37.90;17.13;;;;;;;;;;5052334;28;20362;-65
2021/01/09 03:02:55;;;;;;;42.08;18.15;;;;;;;;;;5052383;28;20532;-64
2021/01/09 03:05:20;;;;;;;46.78;19.55;;;;;;;;;;5053327;28;20036;-64
2021/01/09 03:07:45;;;;;;;38.05;16.88;;;;;;;;;;5051528;28;20024;-65
2021/01/09 03:10:11;;;;;;;41.05;17.52;;;;;;;;;;5053009;28;20021;-64
2021/01/09 03:12:36;;;;;;;40.58;17.70;;;;;;;;;;5055829;28;20028;-64
2021/01/09 03:15:01;;;;;;;40.22;18.23;;;;;;;;;;5055064;28;20027;-64
2021/01/09 03:17:27;;;;;;;40.70;17.65;;;;;;;;;;5057271;28;20025;-64
2021/01/09 03:19:52;;;;;;;43.03;18.90;;;;;;;;;;5054440;28;20017;-64
2021/01/09 03:22:17;;;;;;;43.00;18.58;;;;;;;;;;5052604;28;20024;-64
2021/01/09 03:24:42;;;;;;;45.65;18.08;;;;;;;;;;5052110;28;20496;-64
2021/01/09 03:27:08;;;;;;;49.75;18.70;;;;;;;;;;5054914;28;20072;-64
2021/01/09 03:29:33;;;;;;;40.55;17.02;;;;;;;;;;5052270;28;20032;-64
2021/01/09 03:31:58;;;;;;;47.40;19.60;;;;;;;;;;5052438;28;20033;-64
2021/01/09 03:34:23;;;;;;;51.00;17.98;;;;;;;;;;5051506;28;20048;-64
2021/01/09 03:36:48;;;;;;;53.42;20.20;;;;;;;;;;5054988;28;20100;-64
2021/01/09 03:39:13;;;;;;;43.78;17.17;;;;;;;;;;5052868;28;20025;-64
2021/01/09 03:41:39;;;;;;;44.22;19.27;;;;;;;;;;5056263;28;20447;-64
2021/01/09 03:44:04;;;;;;;53.35;21.13;;;;;;;;;;5050705;28;20021;-64
2021/01/09 03:46:29;;;;;;;50.13;17.98;;;;;;;;;;5051555;28;20104;-64
2021/01/09 03:48:54;;;;;;;48.10;18.75;;;;;;;;;;5052153;28;20488;-64
2021/01/09 03:51:22;;;;;;;49.80;18.10;;;;;;;;;;5052462;28;20100;-64
2021/01/09 03:53:47;;;;;;;49.72;18.92;;;;;;;;;;5051301;28;20523;-64
2021/01/09 03:56:13;;;;;;;44.70;18.88;;;;;;;;;;5051533;28;20131;-64
2021/01/09 03:58:38;;;;;;;51.65;19.77;;;;;;;;;;5054987;28;20033;-64
2021/01/09 04:01:03;;;;;;;55.67;20.20;;;;;;;;;;5052111;28;20020;-64
2021/01/09 04:03:28;;;;;;;54.60;19.67;;;;;;;;;;5050689;28;20086;-64
2021/01/09 04:05:54;;;;;;;50.03;20.60;;;;;;;;;;5051542;28;20488;-64
2021/01/09 04:08:19;;;;;;;67.60;21.90;;;;;;;;;;5053706;28;20428;-64
2021/01/09 04:10:44;;;;;;;62.60;21.33;;;;;;;;;;5052674;28;20556;-64
2021/01/09 04:13:09;;;;;;;50.95;20.35;;;;;;;;;;5050455;28;20017;-64
2021/01/09 04:15:34;;;;;;;51.70;20.42;;;;;;;;;;5052851;28;20017;-64
2021/01/09 04:17:59;;;;;;;52.95;18.67;;;;;;;;;;5053622;28;20487;-64
2021/01/09 04:20:25;;;;;;;48.70;18.65;;;;;;;;;;5054806;28;20515;-64
2021/01/09 04:22:50;;;;;;;58.40;21.05;;;;;;;;;;5050601;28;20029;-64
2021/01/09 04:25:15;;;;;;;58.35;20.88;;;;;;;;;;5050756;28;20021;-64
2021/01/09 04:27:40;;;;;;;52.55;21.42;;;;;;;;;;5053700;28;20493;-64
2021/01/09 04:30:06;;;;;;;58.72;20.48;;;;;;;;;;5051204;28;20020;-64
2021/01/09 04:32:32;;;;;;;62.58;21.52;;;;;;;;;;5056028;28;20025;-64
2021/01/09 04:34:57;;;;;;;57.28;21.15;;;;;;;;;;5052801;28;20032;-64
2021/01/09 04:37:22;;;;;;;51.80;20.27;;;;;;;;;;5053410;28;20123;-64
2021/01/09 04:39:48;;;;;;;54.35;20.77;;;;;;;;;;5053679;28;20028;-64
2021/01/09 04:42:13;;;;;;;57.35;20.55;;;;;;;;;;5051159;28;20025;-64
2021/01/09 04:44:38;;;;;;;65.38;22.92;;;;;;;;;;5050062;28;20112;-64
2021/01/09 04:47:05;;;;;;;57.13;20.90;;;;;;;;;;5054787;28;20021;-64
2021/01/09 04:49:30;;;;;;;54.80;19.27;;;;;;;;;;5051874;28;20028;-64
2021/01/09 04:51:56;;;;;;;63.65;21.20;;;;;;;;;;5052125;28;20477;-64
2021/01/09 04:54:22;;;;;;;57.92;21.45;;;;;;;;;;5054643;28;20370;-64
2021/01/09 04:56:48;;;;;;;66.35;23.35;;;;;;;;;;5050408;28;20082;-64
2021/01/09 04:59:14;;;;;;;56.10;21.13;;;;;;;;;;5049189;28;20017;-64
2021/01/09 05:01:43;;;;;;;66.82;22.42;;;;;;;;;;5046499;28;20143;-64
2021/01/09 05:04:08;;;;;;;74.78;24.13;;;;;;;;;;5049789;28;20021;-64
2021/01/09 05:06:34;;;;;;;84.47;25.50;;;;;;;;;;5052446;28;20035;-64
2021/01/09 05:08:59;;;;;;;64.40;22.48;;;;;;;;;;5053680;28;20549;-64
2021/01/09 05:11:24;;;;;;;73.85;24.90;;;;;;;;;;5049481;28;20032;-64
2021/01/09 05:13:49;;;;;;;81.10;25.30;;;;;;;;;;5052635;28;20020;-64
2021/01/09 05:16:15;;;;;;;75.38;26.63;;;;;;;;;;5050540;28;20035;-64
2021/01/09 05:18:40;;;;;;;78.85;25.35;;;;;;;;;;5051015;28;20100;-64
2021/01/09 05:21:06;;;;;;;74.55;23.60;;;;;;;;;;5051002;28;20023;-64
2021/01/09 05:23:49;;;;;;;75.00;25.30;;;;;;;;;;5051355;28;20024;-64
2021/01/09 05:26:14;;;;;;;81.45;24.70;;;;;;;;;;5051036;28;20393;-64
2021/01/09 05:28:40;;;;;;;77.95;25.17;;;;;;;;;;5052297;28;20030;-65
2021/01/09 05:31:05;;;;;;;82.60;25.13;;;;;;;;;;5051812;28;20100;-64
2021/01/09 05:33:30;;;;;;;75.32;24.75;;;;;;;;;;5049524;28;20028;-64
2021/01/09 05:35:59;;;;;;;90.70;27.67;;;;;;;;;;5051400;28;20694;-65
2021/01/09 05:38:33;;;;;;;87.88;25.92;;;;;;;;;;5052511;28;20017;-64
2021/01/09 05:41:02;;;;;;;89.60;25.85;;;;;;;;;;5052915;28;20028;-64
2021/01/09 05:43:27;;;;;;;82.68;25.88;;;;;;;;;;5050593;28;20434;-64
2021/01/09 05:45:52;;;;;;;88.55;26.73;;;;;;;;;;5050941;28;20052;-64
2021/01/09 05:48:18;;;;;;;79.00;26.48;;;;;;;;;;5052824;28;20033;-65
2021/01/09 05:50:44;;;;;;;95.38;27.25;;;;;;;;;;5049730;28;20021;-64
2021/01/09 05:53:09;;;;;;;90.80;26.92;;;;;;;;;;5051931;28;20052;-64
2021/01/09 05:55:38;;;;;;;86.70;25.80;;;;;;;;;;5053381;28;20071;-64
2021/01/09 05:58:05;;;;;;;84.82;26.73;;;;;;;;;;5051593;28;20024;-64
2021/01/09 06:00:33;;;;;;;79.68;27.17;;;;;;;;;;5049450;28;20024;-64
2021/01/09 06:03:01;;;;;;;85.55;26.85;;;;;;;;;;5048725;28;20021;-64
2021/01/09 06:05:35;;;;;;;84.15;26.17;;;;;;;;;;5055851;28;20086;-65
2021/01/09 06:08:01;;;;;;;92.53;28.70;;;;;;;;;;5050767;28;20020;-64
2021/01/09 06:10:27;;;;;;;83.78;26.63;;;;;;;;;;5051298;28;20039;-65
2021/01/09 06:12:59;;;;;;;89.25;25.52;;;;;;;;;;5050655;28;20091;-65
2021/01/09 06:15:27;;;;;;;89.03;26.73;;;;;;;;;;5050058;28;20020;-64
2021/01/09 06:17:53;;;;;;;89.15;28.80;;;;;;;;;;5055473;28;20021;-64
2021/01/09 06:20:19;;;;;;;86.68;25.33;;;;;;;;;;5054203;28;20024;-64
2021/01/09 06:22:44;;;;;;;93.72;25.58;;;;;;;;;;5054847;28;20028;-64
2021/01/09 06:25:10;;;;;;;83.60;25.13;;;;;;;;;;5054811;28;20025;-64
2021/01/09 06:27:36;;;;;;;92.05;26.63;;;;;;;;;;5053599;28;20029;-64
2021/01/09 06:30:04;;;;;;;91.78;28.60;;;;;;;;;;5052168;28;20473;-64
2021/01/09 06:32:35;;;;;;;94.45;28.23;;;;;;;;;;5056081;28;20041;-64
2021/01/09 06:35:02;;;;;;;85.88;26.95;;;;;;;;;;5053294;28;20029;-64
2021/01/09 06:37:27;;;;;;;91.80;25.98;;;;;;;;;;5058695;28;20040;-64
2021/01/09 06:39:52;;;;;;;91.80;28.00;;;;;;;;;;5052571;28;20025;-64
2021/01/09 06:42:19;;;;;;;94.15;27.52;;;;;;;;;;5054507;28;20083;-64
2021/01/09 06:44:51;;;;;;;92.80;27.77;;;;;;;;;;5054465;28;20540;-64
2021/01/09 06:47:24;;;;;;;92.43;25.73;;;;;;;;;;5054288;28;20017;-64
2021/01/09 06:49:49;;;;;;;80.32;26.45;;;;;;;;;;5055721;28;20029;-64
2021/01/09 06:52:14;;;;;;;89.18;28.02;;;;;;;;;;5053499;28;20512;-64
2021/01/09 06:54:39;;;;;;;95.90;26.27;;;;;;;;;;5055640;28;20101;-64
2021/01/09 06:57:04;;;;;;;94.10;28.30;;;;;;;;;;5054580;28;20302;-64
2021/01/09 06:59:31;;;;;;;97.30;26.38;;;;;;;;;;5056434;28;20619;-64
2021/01/09 07:02:08;;;;;;;84.82;26.30;;;;;;;;;;5051476;28;20268;-64
2021/01/09 07:04:52;;;;;;;95.38;27.65;;;;;;;;;;5052142;28;20032;-64
2021/01/09 07:07:40;;;;;;;101.03;27.42;;;;;;;;;;5058321;28;20021;-64
2021/01/09 07:10:19;;;;;;;104.13;29.25;;;;;;;;;;5037316;28;20048;-64
2021/01/09 07:12:52;;;;;;;98.85;26.52;;;;;;;;;;5054444;28;20025;-64
2021/01/09 07:15:18;;;;;;;108.68;29.77;;;;;;;;;;5051840;28;20017;-64
2021/01/09 07:17:46;;;;;;;98.47;30.10;;;;;;;;;;5052310;28;20036;-64
2021/01/09 07:20:12;;;;;;;101.07;28.23;;;;;;;;;;5050472;28;20092;-64
2021/01/09 07:22:41;;;;;;;99.45;27.13;;;;;;;;;;5052985;28;20055;-64
2021/01/09 07:25:08;;;;;;;99.93;28.15;;;;;;;;;;5051702;28;20024;-64
2021/01/09 07:27:35;;;;;;;83.50;26.05;;;;;;;;;;5044502;28;20083;-64
2021/01/09 07:30:06;;;;;;;101.90;29.83;;;;;;;;;;5050348;28;20645;-64
2021/01/09 07:32:40;;;;;;;104.43;29.75;;;;;;;;;;5052159;28;20026;-64
2021/01/09 07:35:07;;;;;;;101.53;31.38;;;;;;;;;;5044887;28;20477;-64
2021/01/09 07:37:34;;;;;;;107.20;30.40;;;;;;;;;;5052383;28;20012;-64
2021/01/09 07:40:08;;;;;;;93.20;27.38;;;;;;;;;;5048377;28;20017;-65
2021/01/09 07:42:33;;;;;;;91.28;27.48;;;;;;;;;;5047015;28;20078;-63
2021/01/09 07:45:04;;;;;;;93.68;27.35;;;;;;;;;;5037885;28;20025;-65
2021/01/09 07:47:30;;;;;;;81.70;27.58;;;;;;;;;;5045564;28;20447;-65
2021/01/09 07:49:55;;;;;;;95.88;26.90;;;;;;;;;;5045770;28;20024;-64
2021/01/09 07:52:24;;;;;;;98.85;29.80;;;;;;;;;;5046892;28;20029;-65
2021/01/09 07:54:51;;;;;;;91.07;27.60;;;;;;;;;;5045225;28;20021;-65
2021/01/09 07:57:19;;;;;;;93.15;26.52;;;;;;;;;;5059430;28;20020;-65
2021/01/09 07:59:46;;;;;;;96.18;30.08;;;;;;;;;;5043593;28;20071;-64
2021/01/09 08:02:11;;;;;;;90.85;27.25;;;;;;;;;;5048167;28;20024;-64
2021/01/09 08:04:36;;;;;;;100.53;29.25;;;;;;;;;;5063538;28;20069;-63
2021/01/09 08:07:01;;;;;;;103.38;28.23;;;;;;;;;;5054812;28;20032;-65
2021/01/09 08:09:27;;;;;;;94.30;28.33;;;;;;;;;;5047043;28;20111;-65
2021/01/09 08:11:52;;;;;;;93.55;29.10;;;;;;;;;;5049521;28;20501;-65
2021/01/09 08:14:17;;;;;;;95.70;30.70;;;;;;;;;;5045153;28;20025;-64
2021/01/09 08:16:42;;;;;;;99.40;29.30;;;;;;;;;;5043525;28;20028;-64
2021/01/09 08:19:15;;;;;;;96.95;31.45;;;;;;;;;;5049629;28;20460;-64
2021/01/09 08:21:40;;;;;;;94.68;29.30;;;;;;;;;;5048301;28;20051;-64
2021/01/09 08:24:05;;;;;;;102.90;32.65;;;;;;;;;;5044791;28;20124;-64
2021/01/09 08:26:32;;;;;;;98.43;30.15;;;;;;;;;;5051846;28;20483;-65
2021/01/09 08:28:58;;;;;;;88.20;29.38;;;;;;;;;;5052203;28;20016;-64
2021/01/09 08:31:24;;;;;;;84.70;27.85;;;;;;;;;;5058421;28;20027;-65
2021/01/09 08:33:49;;;;;;;97.18;29.00;;;;;;;;;;5043002;28;20029;-64
2021/01/09 08:36:14;;;;;;;94.40;27.88;;;;;;;;;;5045209;28;20489;-65
2021/01/09 08:38:40;;;;;;;88.50;27.83;;;;;;;;;;5051520;28;20021;-65
2021/01/09 08:41:05;;;;;;;85.43;26.38;;;;;;;;;;5050599;28;20012;-65
2021/01/09 08:43:30;;;;;;;94.32;26.98;;;;;;;;;;5045050;28;20432;-65
2021/01/09 08:45:56;;;;;;;88.65;27.83;;;;;;;;;;5051284;28;20022;-65
2021/01/09 08:48:27;;;;;;;89.78;27.48;;;;;;;;;;5047006;28;20095;-65
2021/01/09 08:51:10;;;;;;;88.53;26.08;;;;;;;;;;5039122;28;20432;-65
2021/01/09 08:53:38;;;;;;;97.63;27.08;;;;;;;;;;5047958;28;20376;-65
2021/01/09 08:56:04;;;;;;;91.55;26.13;;;;;;;;;;5049042;28;20106;-65
2021/01/09 08:58:30;;;;;;;86.63;28.33;;;;;;;;;;5050725;28;20025;-65
2021/01/09 09:00:56;;;;;;;94.85;28.77;;;;;;;;;;5048321;28;20027;-65
2021/01/09 09:03:21;;;;;;;84.88;26.42;;;;;;;;;;5050079;28;20025;-65
2021/01/09 09:05:47;;;;;;;86.53;29.42;;;;;;;;;;5050595;28;20472;-65
2021/01/09 09:08:13;;;;;;;81.85;25.60;;;;;;;;;;5049384;28;20032;-64
2021/01/09 09:10:39;;;;;;;80.00;26.30;;;;;;;;;;5043358;28;20727;-65
2021/01/09 09:13:17;;;;;;;86.93;27.60;;;;;;;;;;5035221;28;20075;-65
2021/01/09 09:15:42;;;;;;;79.82;26.33;;;;;;;;;;5042500;28;20020;-65
2021/01/09 09:18:10;;;;;;;81.97;26.92;;;;;;;;;;5041685;28;20493;-65
2021/01/09 09:20:36;;;;;;;80.25;26.50;;;;;;;;;;5039903;28;20070;-65
2021/01/09 09:23:37;;;;;;;89.88;27.33;;;;;;;;;;5051727;28;20028;-65
2021/01/09 09:26:06;;;;;;;80.60;26.65;;;;;;;;;;4986152;28;20046;-64
2021/01/09 09:28:42;;;;;;;84.70;26.20;;;;;;;;;;5041853;28;20091;-64
2021/01/09 09:31:16;;;;;;;90.55;27.65;;;;;;;;;;5055683;28;20275;-64
2021/01/09 09:33:41;;;;;;;87.15;28.58;;;;;;;;;;5046537;28;20044;-68
2021/01/09 09:36:07;;;;;;;81.55;28.85;;;;;;;;;;5049619;28;20033;-65
2021/01/09 09:38:32;;;;;;;87.00;29.63;;;;;;;;;;5048784;28;20432;-65
2021/01/09 09:41:04;;;;;;;92.97;27.98;;;;;;;;;;5047419;28;20084;-65
2021/01/09 09:43:29;;;;;;;83.25;27.63;;;;;;;;;;5040753;28;20033;-65
2021/01/09 09:46:03;;;;;;;79.95;25.38;;;;;;;;;;5050087;28;20031;-66
2021/01/09 09:48:28;;;;;;;89.15;27.98;;;;;;;;;;5062426;28;20346;-65
2021/01/09 09:51:00;;;;;;;94.85;29.27;;;;;;;;;;5056093;28;20521;-66
2021/01/09 09:53:25;;;;;;;95.18;28.42;;;;;;;;;;5051565;28;20035;-65
2021/01/09 09:55:50;;;;;;;96.90;30.23;;;;;;;;;;5052965;28;20033;-65
2021/01/09 09:58:16;;;;;;;104.40;32.07;;;;;;;;;;5050821;28;20016;-65
2021/01/09 10:00:42;;;;;;;83.67;27.30;;;;;;;;;;5058216;28;20346;-66
2021/01/09 10:03:07;;;;;;;96.82;27.73;;;;;;;;;;5057843;28;20743;-66
2021/01/09 10:05:32;;;;;;;98.22;30.55;;;;;;;;;;5056611;28;20036;-65
2021/01/09 10:08:08;;;;;;;98.57;31.48;;;;;;;;;;5062553;28;20024;-65
2021/01/09 10:10:33;;;;;;;92.32;29.05;;;;;;;;;;5053980;28;20411;-65
2021/01/09 10:12:59;;;;;;;93.60;28.92;;;;;;;;;;5059224;28;20032;-65
2021/01/09 10:15:25;;;;;;;88.95;30.05;;;;;;;;;;5054131;28;20070;-66
2021/01/09 10:17:53;;;;;;;94.55;28.85;;;;;;;;;;5057044;28;20052;-66
2021/01/09 10:20:19;;;;;;;97.57;28.67;;;;;;;;;;5056289;28;20047;-65
2021/01/09 10:22:44;;;;;;;95.53;29.38;;;;;;;;;;5049071;28;20032;-65
2021/01/09 10:25:09;;;;;;;91.20;28.80;;;;;;;;;;5052340;28;20021;-63
2021/01/09 10:27:34;;;;;;;87.18;28.50;;;;;;;;;;5055278;28;20033;-66
2021/01/09 10:29:59;;;;;;;94.97;29.38;;;;;;;;;;5059759;28;20024;-65
2021/01/09 10:32:25;;;;;;;84.57;26.60;;;;;;;;;;5053334;28;20021;-65
2021/01/09 10:34:50;;;;;;;88.75;28.20;;;;;;;;;;5053591;28;20267;-65
2021/01/09 10:37:15;;;;;;;95.90;28.77;;;;;;;;;;5048518;28;20100;-65
2021/01/09 10:39:40;;;;;;;94.88;30.83;;;;;;;;;;5053201;28;20024;-65
2021/01/09 10:42:05;;;;;;;100.82;31.65;;;;;;;;;;5052506;28;20555;-65
2021/01/09 10:44:30;;;;;;;100.22;32.75;;;;;;;;;;5054443;28;20096;-65
2021/01/09 10:46:56;;;;;;;112.10;34.13;;;;;;;;;;5048738;28;20630;-65
2021/01/09 10:49:21;;;;;;;105.93;32.63;;;;;;;;;;5051458;28;20031;-65
2021/01/09 10:51:46;;;;;;;101.57;33.20;;;;;;;;;;5060200;28;20035;-66
2021/01/09 10:54:11;;;;;;;96.47;31.15;;;;;;;;;;5054877;28;20097;-65
2021/01/09 10:56:43;;;;;;;149.73;43.67;;;;;;;;;;5045565;28;20018;-66
2021/01/09 10:59:08;;;;;;;156.68;42.50;;;;;;;;;;5051844;28;20066;-65
2021/01/09 11:01:33;;;;;;;152.98;43.50;;;;;;;;;;5049214;28;20036;-65
2021/01/09 11:03:58;;;;;;;141.63;43.60;;;;;;;;;;5051414;28;20047;-64
2021/01/09 11:06:23;;;;;;;147.23;47.23;;;;;;;;;;5051570;28;20033;-66
2021/01/09 11:08:49;;;;;;;152.75;45.88;;;;;;;;;;5051389;28;20279;-64
2021/01/09 11:11:14;;;;;;;160.50;45.08;;;;;;;;;;5050582;28;20059;-65
2021/01/09 11:13:39;;;;;;;145.25;42.58;;;;;;;;;;5049522;28;20021;-66
2021/01/09 11:16:05;;;;;;;159.43;46.42;;;;;;;;;;5055202;28;20009;-65
2021/01/09 11:18:30;;;;;;;143.93;45.50;;;;;;;;;;5049946;28;20017;-65
2021/01/09 11:20:55;;;;;;;146.02;39.97;;;;;;;;;;5055389;28;20175;-65
2021/01/09 11:23:20;;;;;;;148.90;42.67;;;;;;;;;;5049752;28;20036;-66
2021/01/09 11:25:46;;;;;;;146.30;37.90;;;;;;;;;;5048824;28;20288;-65
2021/01/09 11:28:13;;;;;;;157.05;43.55;;;;;;;;;;5052534;28;20024;-64
2021/01/09 11:30:38;;;;;;;166.93;40.83;;;;;;;;;;5054724;28;20043;-65
2021/01/09 11:33:04;;;;;;;152.55;40.70;;;;;;;;;;5054098;28;20117;-65
2021/01/09 11:35:29;;;;;;;173.80;40.15;;;;;;;;;;5047661;28;20017;-65
2021/01/09 11:37:55;;;;;;;177.35;42.45;;;;;;;;;;5053703;28;20541;-65
2021/01/09 11:40:20;;;;;;;179.13;38.53;;;;;;;;;;5051177;28;20024;-65
2021/01/09 11:42:45;;;;;;;178.53;41.63;;;;;;;;;;5052925;28;20416;-66
2021/01/09 11:45:11;;;;;;;178.18;42.13;;;;;;;;;;5051790;28;20265;-66
2021/01/09 11:47:36;;;;;;;178.98;43.10;;;;;;;;;;5054661;28;20029;-65
2021/01/09 11:50:01;;;;;;;168.68;41.30;;;;;;;;;;5057707;28;20071;-65
2021/01/09 11:52:26;;;;;;;169.80;40.95;;;;;;;;;;5031880;28;20083;-65
2021/01/09 11:54:52;;;;;;;179.60;45.33;;;;;;;;;;5032176;28;20504;-65
2021/01/09 11:57:17;;;;;;;162.85;41.95;;;;;;;;;;5033841;28;20013;-65
2021/01/09 11:59:43;;;;;;;186.55;48.00;;;;;;;;;;5053829;28;20035;-65
2021/01/09 12:02:08;;;;;;;177.15;44.97;;;;;;;;;;5071430;28;20025;-65
2021/01/09 12:04:33;;;;;;;198.65;48.03;;;;;;;;;;5051723;28;20024;-65
2021/01/09 12:06:58;;;;;;;184.32;43.45;;;;;;;;;;5045162;28;20029;-65
2021/01/09 12:09:24;;;;;;;209.52;51.88;;;;;;;;;;5031639;28;20478;-65
2021/01/09 12:11:52;;;;;;;196.13;42.15;;;;;;;;;;5031714;28;20033;-65
2021/01/09 12:14:17;;;;;;;188.57;44.75;;;;;;;;;;5029640;28;20022;-65
2021/01/09 12:16:42;;;;;;;173.90;42.22;;;;;;;;;;5031536;28;20025;-64
2021/01/09 12:19:08;;;;;;;186.13;41.03;;;;;;;;;;5031378;28;20100;-65
2021/01/09 12:21:33;;;;;;;196.75;43.10;;;;;;;;;;5066154;28;20017;-65
2021/01/09 12:23:58;;;;;;;197.60;42.10;;;;;;;;;;5050694;28;20122;-64
2021/01/09 12:26:24;;;;;;;173.15;39.30;;;;;;;;;;5051177;28;20262;-65
2021/01/09 12:28:49;;;;;;;194.20;39.80;;;;;;;;;;5051283;28;20597;-65
2021/01/09 12:31:14;;;;;;;165.68;40.58;;;;;;;;;;5050858;28;20535;-65
2021/01/09 12:33:45;;;;;;;188.05;44.83;;;;;;;;;;5051069;28;20035;-65
2021/01/09 12:36:14;;;;;;;168.73;42.80;;;;;;;;;;5051694;28;20021;-65
2021/01/09 12:38:39;;;;;;;196.25;51.38;;;;;;;;;;5051194;28;20021;-66
2021/01/09 12:41:05;;;;;;;200.63;48.97;;;;;;;;;;5032601;28;20022;-64
2021/01/09 12:43:30;;;;;;;219.38;50.53;;;;;;;;;;5051409;28;20107;-64
2021/01/09 12:45:55;;;;;;;197.82;45.65;;;;;;;;;;5051052;28;20067;-65
2021/01/09 12:48:21;;;;;;;197.13;51.20;;;;;;;;;;5052744;28;20477;-66
2021/01/09 12:50:47;;;;;;;198.90;50.45;;;;;;;;;;5057057;28;20448;-66
2021/01/09 12:53:12;;;;;;;193.57;47.20;;;;;;;;;;5045291;28;20060;-65
2021/01/09 12:55:37;;;;;;;203.20;53.30;;;;;;;;;;5046692;28;20095;-65
2021/01/09 12:58:02;;;;;;;203.43;52.63;;;;;;;;;;5041435;28;20117;-66
2021/01/09 13:00:27;;;;;;;194.98;46.50;;;;;;;;;;5030638;28;20330;-65
2021/01/09 13:02:53;;;;;;;197.10;45.00;;;;;;;;;;5047828;28;20031;-64
2021/01/09 13:05:18;;;;;;;188.27;44.97;;;;;;;;;;5045692;28;20032;-66
2021/01/09 13:07:43;;;;;;;149.75;41.72;;;;;;;;;;5043651;28;20028;-66
2021/01/09 13:10:08;;;;;;;195.65;46.10;;;;;;;;;;5036223;28;20025;-65
2021/01/09 13:12:33;;;;;;;162.80;40.05;;;;;;;;;;5037971;28;20033;-65
2021/01/09 13:14:59;;;;;;;137.35;35.30;;;;;;;;;;5031851;28;20018;-65
2021/01/09 13:17:24;;;;;;;132.40;31.40;;;;;;;;;;5035701;28;20060;-66
2021/01/09 13:19:49;;;;;;;113.22;31.67;;;;;;;;;;5040486;28;20298;-65
2021/01/09 13:22:14;;;;;;;113.55;32.95;;;;;;;;;;5044834;28;20050;-65
2021/01/09 13:24:40;;;;;;;112.35;30.73;;;;;;;;;;5049454;28;20028;-67
2021/01/09 13:27:05;;;;;;;113.28;32.85;;;;;;;;;;5053237;28;20460;-66
2021/01/09 13:29:30;;;;;;;113.80;31.85;;;;;;;;;;5053656;28;20036;-66
2021/01/09 13:31:55;;;;;;;113.78;30.55;;;;;;;;;;5045129;28;20358;-65
2021/01/09 13:34:20;;;;;;;117.72;32.30;;;;;;;;;;5045616;28;20772;-65
2021/01/09 13:36:46;;;;;;;113.10;32.72;;;;;;;;;;5050590;28;20501;-66
2021/01/09 13:39:12;;;;;;;121.68;34.25;;;;;;;;;;5063872;28;20100;-65
2021/01/09 13:41:38;;;;;;;115.38;31.58;;;;;;;;;;5054179;28;20017;-66
2021/01/09 13:44:04;;;;;;;122.30;32.35;;;;;;;;;;5048191;28;20029;-66
2021/01/09 13:46:29;;;;;;;97.82;30.33;;;;;;;;;;5048499;28;20025;-66
2021/01/09 13:48:58;;;;;;;101.20;31.60;;;;;;;;;;5049454;28;20059;-65
2021/01/09 13:51:23;;;;;;;90.57;29.83;;;;;;;;;;5056177;28;20503;-65
2021/01/09 13:53:49;;;;;;;91.10;28.65;;;;;;;;;;5063092;28;20111;-65
2021/01/09 13:56:14;;;;;;;83.13;25.95;;;;;;;;;;5045795;28;20028;-66
2021/01/09 13:58:40;;;;;;;94.20;27.50;;;;;;;;;;5049379;28;20701;-66
2021/01/09 14:01:05;;;;;;;106.72;31.95;;;;;;;;;;5050240;28;20048;-66
2021/01/09 14:03:30;;;;;;;95.53;29.10;;;;;;;;;;5051657;28;20032;-65
2021/01/09 14:05:55;;;;;;;93.28;32.17;;;;;;;;;;5046336;28;20036;-66
2021/01/09 14:08:20;;;;;;;92.35;28.45;;;;;;;;;;5028115;28;20029;-65